Aérodrome :
LOGIN :

S'inscrire | Disclaimer

   EN    FR    IT 

 










Légende :    VFR   VFR Marginal   IFR   IFR Intensif   IFR Très Intensif
Visi : 
Plafond : 
>= 8 km
>= 3000ft
5 à 8 km
1000 à 3000 ft
1500m à 5 km
500 à 1000 ft
800 à 1500m
200 à 500 ft
< 800m
< 200 ft
Symboles :   Orages  Brouillard  Fortes neiges  Fortes précipitations  Vent > 20 kt
SIGMETs :   Divers  Orages  Givrage  Turbulence  Onde Orograph.  Cendres Volcan.






- Altitude de l'aérodrome : 0 ft


ETEB - Ansbach Army Heliport

DERNIER METAR :
  • 121756Z AUTO 15006KT 9999 SCT048 OVC060 03/02 A2967 RMK AO2 SLP077 T00330020 10064 20025 58005 $

METARs EXPIRÉS :
  • 121656Z AUTO 15006KT 9999 FEW200 03/02 A2967 RMK AO2 SLP077 T00300015 $
  • 121556Z AUTO 15005KT 9999 CLR 03/02 A2969 RMK AO2 SLP084 T00340019 $

TAF TAF ETEB
Valide du 12 à 06h jusqu'au 13 à 12h UTC


120605Z 1206/1312 21006KT 9999 BKN015 QNH2958INS
BECMG 1208/1209 20009KT 9999 SCT030 QNH2965INS
BECMG 1213/1214 VRB06KT 9999 BKN050 QNH2978INS
BECMG 1220/1221 19009KT 9999 BKN020 620305 QNH2980INS TX03/1213Z TN00/1301Z



MET'MAP, la Météo Aéronautique d'un coup d'oeil ! - Copyright ORBIFLY Décembre 2007 - Disclaimer

ORBIFLY MET'MAP TEAM :

Programmation & Développement : Alexandra Zaïnal
Conception & Développement : Baudouin d'Aumeries
Co-Programmation & Développement : Marc-Olivier Méhu
Soutien technique & logistique : Manuel Goepfert

Contact : metmap@orbifly.com




SOURCES & CREDITS :

   NOAA